Huvudsida
METAR-TAF:

METAR-TAF

Flygplatser :

Leknes flygplats

Leknes, Norge

latitud: 68-09N, longitud: 013-37E, höjd: 2 m

Aktuellt väderrapport

Denna rapport gjordes för 10 timmar och 14 minuter sedan, klockan 19:50 UTC
Vind 3 kt från nordost
Temperatur 8°C
Fuktighet 93%
Tryck 985 hPa
Sikt 10 km eller mer
Få moln på en höjd av 2000 ft
Spridda moln på en höjd av 4500 ft

METAR: ENLK 211950Z 05003KT 9999 FEW020 SCT045 08/07 Q0985

Tid: 08:04 (06:04 UTC)


TAF: saknas

Aktuella väderrapporter och prognoser från 4000 flygplatser (METAR- och TAF-rapporter).

De tillgängliga stationerna syns som gula och röda prickar på kartan.

För musen över prickarna för att se namnen på stationerna.

Klicka sedan för att få väderrapporter och prognoser.

För att ändra kartan: Klicka på de gröna knapparna med ett svart kors på för att zooma in; den gröna knappen med ett streck på för att zooma ut; eller på de gröna pilarna för angränsande kartor.


METAR-TAF: